Terminal Aerodrome Forecast
Issued by NWS

Home | Current Version | Previous Version | Text Only | Print | Product List | Glossary On
Versions: 1 2 3 4 5 6 7 8 9 10 11 12 13 14 15 16 17 18 19 20 21
000
FTUS45 KGJT 230857 AAA
TAFTEX
TAF AMD
KTEX 230857Z 2309/2406 19015G30KT P6SM VCSH FEW030 SCT070
     FM231100 13013G21KT P6SM VCSH SCT050 OVC080
     FM231700 28015G25KT P6SM SCT070 BKN120
     FM240200 14005KT P6SM SCT070=

USA.gov is the U.S. government's official web portal to all federal, state and local government web resources and services.